map of ANG home
ANG - Airport
Location
City:  Angoulême, Poitou-Charentes, France
Name:Brie-Champniers
ICAO:LFBU
IATA:ANG

Details
Type:Airport (Aerodrome, Airfield)
Use:Public/Civil
Latitude:45°43'46"N (45.729475)
Longitude:0°13'09"E (0.219153)
Elevation:436 ft (133 m)
Variation:0.48°E (WMM2015v2 magnetic declination)
0.16° annual change
Runways:2
Longest:5938 × 148 ft (1810 × 45 m)

Time
Time Zone:UTC+1 (DST+2)
Local Time:

Weather
METAR:LFBU 041400Z AUTO 16005KT 9999 -RA BKN042/// OVC048/// ///TCU 03/M00 Q1026 TEMPO 2500 RA OVC005
TAF:LFBU 041100Z 0412/0512 16005KT CAVOK
BECMG 0413/0414 4000 RA BKN030
TEMPO 0415/0421 2500 RA OVC005
BECMG 0422/0424 VRB02KT 2000 BR OVC003
BECMG 0501/0503 0500 FG VV///

Related Locations
Nearby:
Farthest:CHT: 12226 mi / 19675 km
Waitangi [Tuuta], CIT, NZ

Find:

   beyond  
but within

Other Information
Maps:
NOTAMs:
Links:
Sources:

  
  • flag of France
  • flag of Poitou-Charentes
  

Sectional Chart

Flight Planning
at skyvector.com

Satellite Image

Google Maps Satellite view

 

Copyright © 2004-2019 Karl L. Swartz. All rights reserved.
The Great Circle Mapper name and logo are trademarks of the Great Circle Mapper.
All other trademarks mentioned herein belong to their respective owners.
Please see credits for attibutions and further copyright information.

  Follow gcmap on Facebook Follow gcmap on Twitter GCmap on LinkedIn

hCard Microformat

Geo Microformat